sensor_id;sensor_type;location;lat;lon;timestamp;P1;durP1;ratioP1;P2;durP2;ratioP2
55114;SDS011;41010;53.252;5.786;2023-12-07T00:01:48;7.40;;;3.72;;
55114;SDS011;41010;53.252;5.786;2023-12-07T00:04:15;8.50;;;4.10;;
55114;SDS011;41010;53.252;5.786;2023-12-07T00:06:43;5.75;;;3.80;;
55114;SDS011;41010;53.252;5.786;2023-12-07T00:09:11;12.75;;;4.03;;
55114;SDS011;41010;53.252;5.786;2023-12-07T00:11:39;8.65;;;3.88;;
55114;SDS011;41010;53.252;5.786;2023-12-07T00:14:06;9.48;;;4.30;;
55114;SDS011;41010;53.252;5.786;2023-12-07T00:16:33;11.70;;;4.00;;
55114;SDS011;41010;53.252;5.786;2023-12-07T00:19:00;8.57;;;3.85;;
55114;SDS011;41010;53.252;5.786;2023-12-07T00:21:28;8.70;;;3.85;;
55114;SDS011;41010;53.252;5.786;2023-12-07T00:23:55;9.70;;;4.10;;
55114;SDS011;41010;53.252;5.786;2023-12-07T00:26:24;7.63;;;4.10;;
55114;SDS011;41010;53.252;5.786;2023-12-07T00:28:51;8.75;;;4.38;;
55114;SDS011;41010;53.252;5.786;2023-12-07T00:31:18;11.05;;;4.10;;
55114;SDS011;41010;53.252;5.786;2023-12-07T00:33:46;13.38;;;4.95;;
55114;SDS011;41010;53.252;5.786;2023-12-07T00:36:13;10.50;;;4.72;;
55114;SDS011;41010;53.252;5.786;2023-12-07T00:38:41;8.93;;;4.60;;
55114;SDS011;41010;53.252;5.786;2023-12-07T00:41:08;8.77;;;4.40;;
55114;SDS011;41010;53.252;5.786;2023-12-07T00:43:37;9.52;;;4.43;;
55114;SDS011;41010;53.252;5.786;2023-12-07T00:46:06;7.57;;;4.60;;
55114;SDS011;41010;53.252;5.786;2023-12-07T00:48:34;7.38;;;4.72;;
55114;SDS011;41010;53.252;5.786;2023-12-07T00:51:01;8.70;;;4.50;;
55114;SDS011;41010;53.252;5.786;2023-12-07T00:53:28;11.73;;;4.68;;
55114;SDS011;41010;53.252;5.786;2023-12-07T00:55:56;9.85;;;4.55;;
55114;SDS011;41010;53.252;5.786;2023-12-07T00:58:23;10.18;;;4.80;;
55114;SDS011;41010;53.252;5.786;2023-12-07T01:00:52;6.57;;;4.05;;
55114;SDS011;41010;53.252;5.786;2023-12-07T01:03:19;7.70;;;4.38;;
55114;SDS011;41010;53.252;5.786;2023-12-07T01:05:46;8.00;;;4.45;;
55114;SDS011;41010;53.252;5.786;2023-12-07T01:08:13;9.30;;;4.60;;
55114;SDS011;41010;53.252;5.786;2023-12-07T01:10:41;11.75;;;4.95;;
55114;SDS011;41010;53.252;5.786;2023-12-07T01:13:08;8.85;;;4.40;;
55114;SDS011;41010;53.252;5.786;2023-12-07T01:15:35;10.07;;;4.30;;
55114;SDS011;41010;53.252;5.786;2023-12-07T01:18:04;7.45;;;4.78;;
55114;SDS011;41010;53.252;5.786;2023-12-07T01:20:31;9.57;;;4.57;;
55114;SDS011;41010;53.252;5.786;2023-12-07T01:22:58;7.07;;;4.22;;
55114;SDS011;41010;53.252;5.786;2023-12-07T01:25:26;8.57;;;4.38;;
55114;SDS011;41010;53.252;5.786;2023-12-07T01:27:53;9.90;;;3.78;;
55114;SDS011;41010;53.252;5.786;2023-12-07T01:30:20;8.75;;;4.03;;
55114;SDS011;41010;53.252;5.786;2023-12-07T01:32:47;8.13;;;3.60;;
55114;SDS011;41010;53.252;5.786;2023-12-07T01:35:16;7.38;;;3.40;;
55114;SDS011;41010;53.252;5.786;2023-12-07T01:37:43;10.88;;;3.95;;
55114;SDS011;41010;53.252;5.786;2023-12-07T01:40:11;7.22;;;3.53;;
55114;SDS011;41010;53.252;5.786;2023-12-07T01:42:40;8.63;;;3.10;;
55114;SDS011;41010;53.252;5.786;2023-12-07T01:45:07;5.50;;;3.25;;
55114;SDS011;41010;53.252;5.786;2023-12-07T01:47:35;6.13;;;3.17;;
55114;SDS011;41010;53.252;5.786;2023-12-07T01:50:03;8.07;;;3.30;;
55114;SDS011;41010;53.252;5.786;2023-12-07T01:52:32;6.97;;;3.50;;
55114;SDS011;41010;53.252;5.786;2023-12-07T01:55:01;6.70;;;3.45;;
55114;SDS011;41010;53.252;5.786;2023-12-07T01:57:29;9.73;;;3.42;;
55114;SDS011;41010;53.252;5.786;2023-12-07T01:59:56;7.63;;;3.20;;
55114;SDS011;41010;53.252;5.786;2023-12-07T02:02:24;6.93;;;3.28;;
55114;SDS011;41010;53.252;5.786;2023-12-07T02:04:51;7.72;;;3.67;;
55114;SDS011;41010;53.252;5.786;2023-12-07T02:07:19;7.15;;;3.53;;
55114;SDS011;41010;53.252;5.786;2023-12-07T02:09:47;7.68;;;3.70;;
55114;SDS011;41010;53.252;5.786;2023-12-07T02:12:15;7.97;;;3.70;;
55114;SDS011;41010;53.252;5.786;2023-12-07T02:14:44;6.75;;;3.40;;
55114;SDS011;41010;53.252;5.786;2023-12-07T02:17:14;6.10;;;3.55;;
55114;SDS011;41010;53.252;5.786;2023-12-07T02:19:47;6.65;;;3.17;;
55114;SDS011;41010;53.252;5.786;2023-12-07T02:22:17;6.63;;;3.35;;
55114;SDS011;41010;53.252;5.786;2023-12-07T02:24:47;6.13;;;3.83;;
55114;SDS011;41010;53.252;5.786;2023-12-07T02:27:16;5.70;;;3.67;;
55114;SDS011;41010;53.252;5.786;2023-12-07T02:29:43;10.50;;;3.88;;
55114;SDS011;41010;53.252;5.786;2023-12-07T02:32:10;6.00;;;3.47;;
55114;SDS011;41010;53.252;5.786;2023-12-07T02:34:38;7.55;;;3.70;;
55114;SDS011;41010;53.252;5.786;2023-12-07T02:37:06;7.55;;;3.88;;
55114;SDS011;41010;53.252;5.786;2023-12-07T02:39:33;8.80;;;4.03;;
55114;SDS011;41010;53.252;5.786;2023-12-07T02:42:01;7.70;;;3.67;;
55114;SDS011;41010;53.252;5.786;2023-12-07T02:44:29;8.65;;;3.58;;
55114;SDS011;41010;53.252;5.786;2023-12-07T02:46:58;8.02;;;4.22;;
55114;SDS011;41010;53.252;5.786;2023-12-07T02:49:25;8.50;;;4.13;;
55114;SDS011;41010;53.252;5.786;2023-12-07T02:51:52;8.38;;;3.70;;
55114;SDS011;41010;53.252;5.786;2023-12-07T02:54:19;8.88;;;3.97;;
55114;SDS011;41010;53.252;5.786;2023-12-07T02:56:47;11.70;;;4.25;;
55114;SDS011;41010;53.252;5.786;2023-12-07T02:59:15;8.45;;;4.05;;
55114;SDS011;41010;53.252;5.786;2023-12-07T03:01:43;8.05;;;3.80;;
55114;SDS011;41010;53.252;5.786;2023-12-07T03:04:10;6.55;;;3.90;;
55114;SDS011;41010;53.252;5.786;2023-12-07T03:06:38;7.57;;;3.97;;
55114;SDS011;41010;53.252;5.786;2023-12-07T03:09:05;9.93;;;3.60;;
55114;SDS011;41010;53.252;5.786;2023-12-07T03:11:32;6.50;;;3.90;;
55114;SDS011;41010;53.252;5.786;2023-12-07T03:13:59;6.93;;;3.85;;
55114;SDS011;41010;53.252;5.786;2023-12-07T03:16:27;8.30;;;3.85;;
55114;SDS011;41010;53.252;5.786;2023-12-07T03:18:55;7.38;;;3.83;;
55114;SDS011;41010;53.252;5.786;2023-12-07T03:21:22;8.23;;;3.58;;
55114;SDS011;41010;53.252;5.786;2023-12-07T03:23:50;5.90;;;3.55;;
55114;SDS011;41010;53.252;5.786;2023-12-07T03:26:17;8.55;;;3.83;;
55114;SDS011;41010;53.252;5.786;2023-12-07T03:28:44;5.72;;;3.35;;
55114;SDS011;41010;53.252;5.786;2023-12-07T03:31:11;7.40;;;3.75;;
55114;SDS011;41010;53.252;5.786;2023-12-07T03:33:40;7.40;;;3.88;;
55114;SDS011;41010;53.252;5.786;2023-12-07T03:36:11;7.50;;;3.60;;
55114;SDS011;41010;53.252;5.786;2023-12-07T03:38:39;7.78;;;3.28;;
55114;SDS011;41010;53.252;5.786;2023-12-07T03:41:06;7.07;;;3.13;;
55114;SDS011;41010;53.252;5.786;2023-12-07T03:43:33;7.95;;;3.53;;
55114;SDS011;41010;53.252;5.786;2023-12-07T03:46:03;6.22;;;3.05;;
55114;SDS011;41010;53.252;5.786;2023-12-07T03:48:31;7.18;;;2.72;;
55114;SDS011;41010;53.252;5.786;2023-12-07T03:50:58;9.68;;;3.10;;
55114;SDS011;41010;53.252;5.786;2023-12-07T03:53:27;5.65;;;2.92;;
55114;SDS011;41010;53.252;5.786;2023-12-07T03:55:55;4.25;;;2.58;;
55114;SDS011;41010;53.252;5.786;2023-12-07T03:58:22;3.72;;;2.35;;
55114;SDS011;41010;53.252;5.786;2023-12-07T04:00:49;5.35;;;2.88;;
55114;SDS011;41010;53.252;5.786;2023-12-07T04:03:16;6.15;;;3.00;;
55114;SDS011;41010;53.252;5.786;2023-12-07T04:05:44;4.95;;;2.60;;
55114;SDS011;41010;53.252;5.786;2023-12-07T04:08:11;5.20;;;2.97;;
55114;SDS011;41010;53.252;5.786;2023-12-07T04:10:39;5.38;;;2.65;;
55114;SDS011;41010;53.252;5.786;2023-12-07T04:13:07;7.03;;;2.83;;
55114;SDS011;41010;53.252;5.786;2023-12-07T04:15:34;4.20;;;2.60;;
55114;SDS011;41010;53.252;5.786;2023-12-07T04:18:01;4.63;;;2.75;;
55114;SDS011;41010;53.252;5.786;2023-12-07T04:20:28;9.00;;;3.10;;
55114;SDS011;41010;53.252;5.786;2023-12-07T04:22:56;3.70;;;2.33;;
55114;SDS011;41010;53.252;5.786;2023-12-07T04:25:23;5.57;;;2.88;;
55114;SDS011;41010;53.252;5.786;2023-12-07T04:27:52;4.32;;;2.50;;
55114;SDS011;41010;53.252;5.786;2023-12-07T04:30:19;3.65;;;2.35;;
55114;SDS011;41010;53.252;5.786;2023-12-07T04:32:46;4.32;;;2.63;;
55114;SDS011;41010;53.252;5.786;2023-12-07T04:35:13;5.05;;;2.75;;
55114;SDS011;41010;53.252;5.786;2023-12-07T04:37:41;5.25;;;2.83;;
55114;SDS011;41010;53.252;5.786;2023-12-07T04:40:08;5.03;;;2.80;;
55114;SDS011;41010;53.252;5.786;2023-12-07T04:42:35;4.90;;;2.95;;
55114;SDS011;41010;53.252;5.786;2023-12-07T04:45:05;9.20;;;3.25;;
55114;SDS011;41010;53.252;5.786;2023-12-07T04:47:32;6.22;;;3.17;;
55114;SDS011;41010;53.252;5.786;2023-12-07T04:49:59;4.93;;;2.85;;
55114;SDS011;41010;53.252;5.786;2023-12-07T04:52:27;7.40;;;2.97;;
55114;SDS011;41010;53.252;5.786;2023-12-07T04:54:54;6.20;;;3.55;;
55114;SDS011;41010;53.252;5.786;2023-12-07T04:57:21;6.97;;;3.80;;
55114;SDS011;41010;53.252;5.786;2023-12-07T04:59:49;6.43;;;2.88;;
55114;SDS011;41010;53.252;5.786;2023-12-07T05:02:17;5.50;;;3.28;;
55114;SDS011;41010;53.252;5.786;2023-12-07T05:04:45;5.65;;;3.47;;
55114;SDS011;41010;53.252;5.786;2023-12-07T05:07:12;6.30;;;3.20;;
55114;SDS011;41010;53.252;5.786;2023-12-07T05:09:39;8.15;;;3.15;;
55114;SDS011;41010;53.252;5.786;2023-12-07T05:12:07;7.30;;;3.45;;
55114;SDS011;41010;53.252;5.786;2023-12-07T05:14:34;6.15;;;3.35;;
55114;SDS011;41010;53.252;5.786;2023-12-07T05:17:02;11.38;;;3.85;;
55114;SDS011;41010;53.252;5.786;2023-12-07T05:19:31;8.02;;;3.80;;
55114;SDS011;41010;53.252;5.786;2023-12-07T05:21:58;8.25;;;3.80;;
55114;SDS011;41010;53.252;5.786;2023-12-07T05:24:26;9.93;;;3.90;;
55114;SDS011;41010;53.252;5.786;2023-12-07T05:26:53;7.78;;;3.78;;
55114;SDS011;41010;53.252;5.786;2023-12-07T05:29:20;5.78;;;2.83;;
55114;SDS011;41010;53.252;5.786;2023-12-07T05:31:48;5.95;;;3.58;;
55114;SDS011;41010;53.252;5.786;2023-12-07T05:34:16;7.22;;;3.70;;
55114;SDS011;41010;53.252;5.786;2023-12-07T05:36:45;6.93;;;3.35;;
55114;SDS011;41010;53.252;5.786;2023-12-07T05:39:13;6.35;;;3.85;;
55114;SDS011;41010;53.252;5.786;2023-12-07T05:41:42;9.45;;;4.10;;
55114;SDS011;41010;53.252;5.786;2023-12-07T05:44:11;7.55;;;3.65;;
55114;SDS011;41010;53.252;5.786;2023-12-07T05:46:39;6.22;;;3.53;;
55114;SDS011;41010;53.252;5.786;2023-12-07T05:49:09;7.85;;;4.13;;
55114;SDS011;41010;53.252;5.786;2023-12-07T05:51:36;7.20;;;3.78;;
55114;SDS011;41010;53.252;5.786;2023-12-07T05:54:06;12.57;;;4.18;;
55114;SDS011;41010;53.252;5.786;2023-12-07T05:56:33;7.32;;;4.10;;
55114;SDS011;41010;53.252;5.786;2023-12-07T05:59:00;10.15;;;4.70;;
55114;SDS011;41010;53.252;5.786;2023-12-07T06:01:27;9.70;;;4.20;;
55114;SDS011;41010;53.252;5.786;2023-12-07T06:03:55;8.80;;;4.05;;
55114;SDS011;41010;53.252;5.786;2023-12-07T06:06:22;8.05;;;4.25;;
55114;SDS011;41010;53.252;5.786;2023-12-07T06:08:49;9.20;;;4.43;;
55114;SDS011;41010;53.252;5.786;2023-12-07T06:11:18;9.57;;;5.03;;
55114;SDS011;41010;53.252;5.786;2023-12-07T06:13:45;10.35;;;5.13;;
55114;SDS011;41010;53.252;5.786;2023-12-07T06:16:12;9.70;;;5.63;;
55114;SDS011;41010;53.252;5.786;2023-12-07T06:18:40;11.27;;;5.40;;
55114;SDS011;41010;53.252;5.786;2023-12-07T06:21:08;9.57;;;5.15;;
55114;SDS011;41010;53.252;5.786;2023-12-07T06:23:35;12.20;;;5.70;;
55114;SDS011;41010;53.252;5.786;2023-12-07T06:26:02;18.90;;;8.80;;
55114;SDS011;41010;53.252;5.786;2023-12-07T06:28:31;19.23;;;8.48;;
55114;SDS011;41010;53.252;5.786;2023-12-07T06:31:04;16.17;;;6.57;;
55114;SDS011;41010;53.252;5.786;2023-12-07T06:33:32;13.75;;;6.78;;
55114;SDS011;41010;53.252;5.786;2023-12-07T06:35:59;15.20;;;6.32;;
55114;SDS011;41010;53.252;5.786;2023-12-07T06:38:28;11.50;;;6.35;;
55114;SDS011;41010;53.252;5.786;2023-12-07T06:40:55;11.27;;;6.20;;
55114;SDS011;41010;53.252;5.786;2023-12-07T06:43:23;13.63;;;5.95;;
55114;SDS011;41010;53.252;5.786;2023-12-07T06:45:52;16.55;;;6.72;;
55114;SDS011;41010;53.252;5.786;2023-12-07T06:48:20;15.35;;;6.50;;
55114;SDS011;41010;53.252;5.786;2023-12-07T06:50:47;13.65;;;6.38;;
55114;SDS011;41010;53.252;5.786;2023-12-07T06:53:14;12.63;;;6.53;;
55114;SDS011;41010;53.252;5.786;2023-12-07T06:55:43;15.68;;;6.90;;
55114;SDS011;41010;53.252;5.786;2023-12-07T06:58:10;14.73;;;7.10;;
55114;SDS011;41010;53.252;5.786;2023-12-07T07:00:38;18.77;;;7.28;;
55114;SDS011;41010;53.252;5.786;2023-12-07T07:03:06;15.98;;;7.82;;
55114;SDS011;41010;53.252;5.786;2023-12-07T07:05:33;13.75;;;6.93;;
55114;SDS011;41010;53.252;5.786;2023-12-07T07:08:01;16.45;;;7.30;;
55114;SDS011;41010;53.252;5.786;2023-12-07T07:10:28;15.68;;;7.45;;
55114;SDS011;41010;53.252;5.786;2023-12-07T07:12:59;15.48;;;7.57;;
55114;SDS011;41010;53.252;5.786;2023-12-07T07:15:26;17.75;;;7.38;;
55114;SDS011;41010;53.252;5.786;2023-12-07T07:17:53;18.95;;;8.80;;
55114;SDS011;41010;53.252;5.786;2023-12-07T07:20:22;16.25;;;7.97;;
55114;SDS011;41010;53.252;5.786;2023-12-07T07:22:49;20.13;;;7.72;;
55114;SDS011;41010;53.252;5.786;2023-12-07T07:25:17;15.63;;;7.40;;
55114;SDS011;41010;53.252;5.786;2023-12-07T07:27:45;18.60;;;7.55;;
55114;SDS011;41010;53.252;5.786;2023-12-07T07:30:12;15.32;;;7.07;;
55114;SDS011;41010;53.252;5.786;2023-12-07T07:32:39;17.60;;;7.72;;
55114;SDS011;41010;53.252;5.786;2023-12-07T07:35:07;13.10;;;6.72;;
55114;SDS011;41010;53.252;5.786;2023-12-07T07:37:38;16.50;;;7.55;;
55114;SDS011;41010;53.252;5.786;2023-12-07T07:40:07;15.93;;;7.22;;
55114;SDS011;41010;53.252;5.786;2023-12-07T07:42:36;15.52;;;7.70;;
55114;SDS011;41010;53.252;5.786;2023-12-07T07:45:05;14.35;;;7.32;;
55114;SDS011;41010;53.252;5.786;2023-12-07T07:47:33;13.60;;;7.20;;
55114;SDS011;41010;53.252;5.786;2023-12-07T07:50:00;15.48;;;6.57;;
55114;SDS011;41010;53.252;5.786;2023-12-07T07:52:31;17.33;;;7.30;;
55114;SDS011;41010;53.252;5.786;2023-12-07T07:55:00;19.73;;;7.88;;
55114;SDS011;41010;53.252;5.786;2023-12-07T07:57:28;16.10;;;7.70;;
55114;SDS011;41010;53.252;5.786;2023-12-07T07:59:55;15.63;;;7.60;;
55114;SDS011;41010;53.252;5.786;2023-12-07T08:02:23;17.25;;;7.97;;
55114;SDS011;41010;53.252;5.786;2023-12-07T08:04:50;16.90;;;8.55;;
55114;SDS011;41010;53.252;5.786;2023-12-07T08:07:17;19.80;;;8.00;;
55114;SDS011;41010;53.252;5.786;2023-12-07T08:09:45;20.10;;;8.10;;
55114;SDS011;41010;53.252;5.786;2023-12-07T08:12:13;23.48;;;8.25;;
55114;SDS011;41010;53.252;5.786;2023-12-07T08:14:41;16.98;;;7.90;;
55114;SDS011;41010;53.252;5.786;2023-12-07T08:17:09;18.38;;;8.68;;
55114;SDS011;41010;53.252;5.786;2023-12-07T08:19:36;18.00;;;8.63;;
55114;SDS011;41010;53.252;5.786;2023-12-07T08:22:04;19.67;;;9.07;;
55114;SDS011;41010;53.252;5.786;2023-12-07T08:24:31;19.10;;;8.75;;
55114;SDS011;41010;53.252;5.786;2023-12-07T08:26:58;21.45;;;9.27;;
55114;SDS011;41010;53.252;5.786;2023-12-07T08:29:27;20.38;;;9.10;;
55114;SDS011;41010;53.252;5.786;2023-12-07T08:31:54;21.25;;;10.20;;
55114;SDS011;41010;53.252;5.786;2023-12-07T08:34:21;24.90;;;10.38;;
55114;SDS011;41010;53.252;5.786;2023-12-07T08:36:49;21.67;;;10.05;;
55114;SDS011;41010;53.252;5.786;2023-12-07T08:39:16;20.00;;;9.38;;
55114;SDS011;41010;53.252;5.786;2023-12-07T08:41:44;25.33;;;9.60;;
55114;SDS011;41010;53.252;5.786;2023-12-07T08:44:11;20.40;;;8.43;;
55114;SDS011;41010;53.252;5.786;2023-12-07T08:46:40;20.73;;;10.07;;
55114;SDS011;41010;53.252;5.786;2023-12-07T08:49:10;24.27;;;10.48;;
55114;SDS011;41010;53.252;5.786;2023-12-07T08:51:37;24.33;;;12.48;;
55114;SDS011;41010;53.252;5.786;2023-12-07T08:54:04;22.88;;;11.07;;
55114;SDS011;41010;53.252;5.786;2023-12-07T08:56:31;22.20;;;9.65;;
55114;SDS011;41010;53.252;5.786;2023-12-07T08:58:59;27.55;;;9.52;;
55114;SDS011;41010;53.252;5.786;2023-12-07T09:01:26;22.90;;;10.82;;
55114;SDS011;41010;53.252;5.786;2023-12-07T09:03:56;20.67;;;10.13;;
55114;SDS011;41010;53.252;5.786;2023-12-07T09:06:27;25.95;;;10.57;;
55114;SDS011;41010;53.252;5.786;2023-12-07T09:08:54;23.40;;;10.48;;
55114;SDS011;41010;53.252;5.786;2023-12-07T09:11:21;26.92;;;11.52;;
55114;SDS011;41010;53.252;5.786;2023-12-07T09:13:49;23.92;;;11.68;;
55114;SDS011;41010;53.252;5.786;2023-12-07T09:16:16;26.77;;;11.45;;
55114;SDS011;41010;53.252;5.786;2023-12-07T09:18:43;25.27;;;11.45;;
55114;SDS011;41010;53.252;5.786;2023-12-07T09:21:12;28.90;;;12.07;;
55114;SDS011;41010;53.252;5.786;2023-12-07T09:23:40;25.88;;;12.18;;
55114;SDS011;41010;53.252;5.786;2023-12-07T09:26:07;31.73;;;12.38;;
55114;SDS011;41010;53.252;5.786;2023-12-07T09:28:34;24.65;;;11.55;;
55114;SDS011;41010;53.252;5.786;2023-12-07T09:31:02;30.73;;;12.50;;
55114;SDS011;41010;53.252;5.786;2023-12-07T09:33:29;25.15;;;11.80;;
55114;SDS011;41010;53.252;5.786;2023-12-07T09:35:56;32.80;;;12.65;;
55114;SDS011;41010;53.252;5.786;2023-12-07T09:38:25;27.83;;;12.20;;
55114;SDS011;41010;53.252;5.786;2023-12-07T09:40:52;29.90;;;13.00;;
55114;SDS011;41010;53.252;5.786;2023-12-07T09:43:20;31.63;;;13.32;;
55114;SDS011;41010;53.252;5.786;2023-12-07T09:45:48;31.15;;;14.18;;
55114;SDS011;41010;53.252;5.786;2023-12-07T09:48:15;36.33;;;14.30;;
55114;SDS011;41010;53.252;5.786;2023-12-07T09:50:44;33.13;;;14.07;;
55114;SDS011;41010;53.252;5.786;2023-12-07T09:53:11;36.08;;;14.88;;
55114;SDS011;41010;53.252;5.786;2023-12-07T09:55:39;34.40;;;15.05;;
55114;SDS011;41010;53.252;5.786;2023-12-07T09:58:07;38.60;;;16.13;;
55114;SDS011;41010;53.252;5.786;2023-12-07T10:00:34;36.55;;;15.38;;
55114;SDS011;41010;53.252;5.786;2023-12-07T10:03:01;34.63;;;15.38;;
55114;SDS011;41010;53.252;5.786;2023-12-07T10:05:29;35.03;;;15.68;;
55114;SDS011;41010;53.252;5.786;2023-12-07T10:07:56;37.17;;;16.60;;
55114;SDS011;41010;53.252;5.786;2023-12-07T10:10:23;40.35;;;16.20;;
55114;SDS011;41010;53.252;5.786;2023-12-07T10:12:52;45.90;;;16.85;;
55114;SDS011;41010;53.252;5.786;2023-12-07T10:15:20;36.72;;;15.68;;
55114;SDS011;41010;53.252;5.786;2023-12-07T10:17:49;38.90;;;16.15;;
55114;SDS011;41010;53.252;5.786;2023-12-07T10:20:16;30.50;;;14.95;;
55114;SDS011;41010;53.252;5.786;2023-12-07T10:22:44;25.55;;;12.95;;
55114;SDS011;41010;53.252;5.786;2023-12-07T10:25:12;21.08;;;10.98;;
55114;SDS011;41010;53.252;5.786;2023-12-07T10:27:40;18.48;;;10.35;;
55114;SDS011;41010;53.252;5.786;2023-12-07T10:30:12;15.63;;;8.15;;
55114;SDS011;41010;53.252;5.786;2023-12-07T10:32:39;13.52;;;7.40;;
55114;SDS011;41010;53.252;5.786;2023-12-07T10:35:07;13.27;;;7.50;;
55114;SDS011;41010;53.252;5.786;2023-12-07T10:37:35;12.50;;;7.28;;
55114;SDS011;41010;53.252;5.786;2023-12-07T10:40:03;12.20;;;7.60;;
55114;SDS011;41010;53.252;5.786;2023-12-07T10:42:33;12.52;;;6.57;;
55114;SDS011;41010;53.252;5.786;2023-12-07T10:45:05;11.30;;;6.97;;
55114;SDS011;41010;53.252;5.786;2023-12-07T10:47:37;15.50;;;7.10;;
55114;SDS011;41010;53.252;5.786;2023-12-07T10:50:05;12.60;;;7.00;;
55114;SDS011;41010;53.252;5.786;2023-12-07T10:52:36;13.95;;;6.93;;
55114;SDS011;41010;53.252;5.786;2023-12-07T10:55:05;13.77;;;7.15;;
55114;SDS011;41010;53.252;5.786;2023-12-07T10:57:34;11.75;;;6.50;;
55114;SDS011;41010;53.252;5.786;2023-12-07T11:00:02;13.48;;;6.25;;
55114;SDS011;41010;53.252;5.786;2023-12-07T11:02:30;11.52;;;6.20;;
55114;SDS011;41010;53.252;5.786;2023-12-07T11:05:00;15.98;;;7.00;;
55114;SDS011;41010;53.252;5.786;2023-12-07T11:07:31;14.35;;;6.93;;
55114;SDS011;41010;53.252;5.786;2023-12-07T11:10:04;12.98;;;7.28;;
55114;SDS011;41010;53.252;5.786;2023-12-07T11:12:33;13.52;;;7.50;;
55114;SDS011;41010;53.252;5.786;2023-12-07T11:15:02;13.32;;;7.45;;
55114;SDS011;41010;53.252;5.786;2023-12-07T11:17:30;13.13;;;7.57;;
55114;SDS011;41010;53.252;5.786;2023-12-07T11:20:19;14.98;;;7.85;;
55114;SDS011;41010;53.252;5.786;2023-12-07T11:22:46;14.70;;;7.75;;
55114;SDS011;41010;53.252;5.786;2023-12-07T11:25:15;14.68;;;7.47;;
55114;SDS011;41010;53.252;5.786;2023-12-07T11:27:45;13.93;;;8.18;;
55114;SDS011;41010;53.252;5.786;2023-12-07T11:30:15;16.67;;;8.18;;
55114;SDS011;41010;53.252;5.786;2023-12-07T11:32:43;16.80;;;8.27;;
55114;SDS011;41010;53.252;5.786;2023-12-07T11:35:13;16.90;;;8.52;;
55114;SDS011;41010;53.252;5.786;2023-12-07T11:38:02;18.80;;;9.57;;
55114;SDS011;41010;53.252;5.786;2023-12-07T11:40:31;16.67;;;9.07;;
55114;SDS011;41010;53.252;5.786;2023-12-07T11:42:59;16.48;;;8.93;;
55114;SDS011;41010;53.252;5.786;2023-12-07T11:45:39;21.90;;;9.73;;
55114;SDS011;41010;53.252;5.786;2023-12-07T11:48:07;21.45;;;10.55;;
55114;SDS011;41010;53.252;5.786;2023-12-07T11:50:35;22.38;;;10.93;;
55114;SDS011;41010;53.252;5.786;2023-12-07T11:53:04;20.02;;;10.02;;
55114;SDS011;41010;53.252;5.786;2023-12-07T11:55:32;18.05;;;10.05;;
55114;SDS011;41010;53.252;5.786;2023-12-07T11:58:00;19.88;;;10.73;;
55114;SDS011;41010;53.252;5.786;2023-12-07T12:00:27;19.00;;;10.52;;
55114;SDS011;41010;53.252;5.786;2023-12-07T12:02:56;20.30;;;10.98;;
55114;SDS011;41010;53.252;5.786;2023-12-07T12:05:23;23.50;;;11.48;;
55114;SDS011;41010;53.252;5.786;2023-12-07T12:07:51;22.10;;;11.65;;
55114;SDS011;41010;53.252;5.786;2023-12-07T12:10:19;22.58;;;11.70;;
55114;SDS011;41010;53.252;5.786;2023-12-07T12:12:49;24.60;;;11.68;;
55114;SDS011;41010;53.252;5.786;2023-12-07T12:15:16;20.27;;;10.50;;
55114;SDS011;41010;53.252;5.786;2023-12-07T12:17:45;26.05;;;11.85;;
55114;SDS011;41010;53.252;5.786;2023-12-07T12:20:13;23.83;;;11.57;;
55114;SDS011;41010;53.252;5.786;2023-12-07T12:22:42;28.23;;;11.93;;
55114;SDS011;41010;53.252;5.786;2023-12-07T12:25:09;24.25;;;11.88;;
55114;SDS011;41010;53.252;5.786;2023-12-07T12:27:38;24.98;;;12.02;;
55114;SDS011;41010;53.252;5.786;2023-12-07T12:30:06;22.67;;;11.77;;
55114;SDS011;41010;53.252;5.786;2023-12-07T12:32:41;30.25;;;12.88;;
55114;SDS011;41010;53.252;5.786;2023-12-07T12:35:08;25.45;;;13.32;;
55114;SDS011;41010;53.252;5.786;2023-12-07T12:37:37;29.83;;;12.70;;
55114;SDS011;41010;53.252;5.786;2023-12-07T12:40:05;27.10;;;12.02;;
55114;SDS011;41010;53.252;5.786;2023-12-07T12:42:32;25.10;;;13.00;;
55114;SDS011;41010;53.252;5.786;2023-12-07T12:45:04;23.77;;;12.75;;
55114;SDS011;41010;53.252;5.786;2023-12-07T12:47:32;22.70;;;12.65;;
55114;SDS011;41010;53.252;5.786;2023-12-07T12:50:00;22.00;;;12.82;;
55114;SDS011;41010;53.252;5.786;2023-12-07T12:52:29;25.23;;;13.20;;
55114;SDS011;41010;53.252;5.786;2023-12-07T12:54:57;21.55;;;12.02;;
55114;SDS011;41010;53.252;5.786;2023-12-07T12:57:24;26.83;;;12.82;;
55114;SDS011;41010;53.252;5.786;2023-12-07T12:59:51;23.85;;;12.23;;
55114;SDS011;41010;53.252;5.786;2023-12-07T13:02:20;24.05;;;10.65;;
55114;SDS011;41010;53.252;5.786;2023-12-07T13:04:47;26.25;;;9.73;;
55114;SDS011;41010;53.252;5.786;2023-12-07T13:07:15;25.55;;;10.30;;
55114;SDS011;41010;53.252;5.786;2023-12-07T13:09:42;22.42;;;8.55;;
55114;SDS011;41010;53.252;5.786;2023-12-07T13:12:10;43.58;;;9.27;;
55114;SDS011;41010;53.252;5.786;2023-12-07T13:14:37;34.67;;;9.30;;
55114;SDS011;41010;53.252;5.786;2023-12-07T13:17:05;21.80;;;9.38;;
55114;SDS011;41010;53.252;5.786;2023-12-07T13:19:35;35.20;;;10.35;;
55114;SDS011;41010;53.252;5.786;2023-12-07T13:22:02;26.67;;;10.80;;
55114;SDS011;41010;53.252;5.786;2023-12-07T13:24:30;34.95;;;11.68;;
55114;SDS011;41010;53.252;5.786;2023-12-07T13:26:57;26.25;;;11.13;;
55114;SDS011;41010;53.252;5.786;2023-12-07T13:29:25;29.15;;;12.23;;
55114;SDS011;41010;53.252;5.786;2023-12-07T13:31:52;35.80;;;12.18;;
55114;SDS011;41010;53.252;5.786;2023-12-07T13:34:20;49.50;;;12.10;;
55114;SDS011;41010;53.252;5.786;2023-12-07T13:36:48;29.35;;;10.93;;
55114;SDS011;41010;53.252;5.786;2023-12-07T13:39:16;36.97;;;11.75;;
55114;SDS011;41010;53.252;5.786;2023-12-07T13:41:45;34.22;;;11.40;;
55114;SDS011;41010;53.252;5.786;2023-12-07T13:44:14;34.13;;;11.38;;
55114;SDS011;41010;53.252;5.786;2023-12-07T13:46:43;29.10;;;10.88;;
55114;SDS011;41010;53.252;5.786;2023-12-07T13:49:11;39.38;;;11.63;;
55114;SDS011;41010;53.252;5.786;2023-12-07T13:51:39;28.55;;;11.70;;
55114;SDS011;41010;53.252;5.786;2023-12-07T13:54:08;25.65;;;10.75;;
55114;SDS011;41010;53.252;5.786;2023-12-07T13:56:35;36.72;;;9.88;;
55114;SDS011;41010;53.252;5.786;2023-12-07T13:59:03;41.20;;;10.43;;
55114;SDS011;41010;53.252;5.786;2023-12-07T14:01:32;31.25;;;10.05;;
55114;SDS011;41010;53.252;5.786;2023-12-07T14:04:00;39.30;;;10.70;;
55114;SDS011;41010;53.252;5.786;2023-12-07T14:06:28;25.92;;;11.07;;
55114;SDS011;41010;53.252;5.786;2023-12-07T14:08:55;24.42;;;10.88;;
55114;SDS011;41010;53.252;5.786;2023-12-07T14:11:24;32.40;;;11.07;;
55114;SDS011;41010;53.252;5.786;2023-12-07T14:13:51;40.83;;;10.63;;
55114;SDS011;41010;53.252;5.786;2023-12-07T14:16:19;26.85;;;10.40;;
55114;SDS011;41010;53.252;5.786;2023-12-07T14:18:47;29.58;;;9.95;;
55114;SDS011;41010;53.252;5.786;2023-12-07T14:21:18;37.10;;;10.48;;
55114;SDS011;41010;53.252;5.786;2023-12-07T14:23:46;28.20;;;11.30;;
55114;SDS011;41010;53.252;5.786;2023-12-07T14:26:14;37.88;;;10.80;;
55114;SDS011;41010;53.252;5.786;2023-12-07T14:28:42;23.58;;;10.95;;
55114;SDS011;41010;53.252;5.786;2023-12-07T14:31:09;33.72;;;11.45;;
55114;SDS011;41010;53.252;5.786;2023-12-07T14:33:41;26.23;;;10.90;;
55114;SDS011;41010;53.252;5.786;2023-12-07T14:36:09;29.65;;;11.65;;
55114;SDS011;41010;53.252;5.786;2023-12-07T14:38:37;29.95;;;11.73;;
55114;SDS011;41010;53.252;5.786;2023-12-07T14:41:05;28.15;;;11.10;;